Time;durP1;ratioP1;P1;durP2;ratioP2;P2;SDS_P1;SDS_P2;PMS_P1;PMS_P2;Temp;Humidity;BMP_temperature;BMP_pressure;BME280_temperature;BME280_humidity;BME280_pressure;Samples;Min_cycle;Max_cycle;Signal;HPM_P1;HPM_P2
2024/02/01 00:01:21;;;;;;;22.10;12.90;;;;;;;1.24;100.00;101328.27;105121;1256;71811;-57
2024/02/01 00:03:48;;;;;;;19.30;12.70;;;;;;;1.25;100.00;101322.27;104983;1259;67279;-56
2024/02/01 00:06:16;;;;;;;22.20;13.60;;;;;;;1.27;100.00;101315.74;104985;1254;72341;-57
2024/02/01 00:08:44;;;;;;;21.10;13.70;;;;;;;1.28;100.00;101310.98;104949;1254;59853;-57
2024/02/01 00:11:11;;;;;;;21.80;14.00;;;;;;;1.27;100.00;101313.81;105008;1252;60540;-58
2024/02/01 00:13:38;;;;;;;22.80;14.60;;;;;;;1.28;100.00;101311.68;105072;1254;71500;-57
2024/02/01 00:16:06;;;;;;;23.40;14.20;;;;;;;1.28;100.00;101312.73;104882;1255;66842;-56
2024/02/01 00:18:33;;;;;;;25.80;13.80;;;;;;;1.30;100.00;101312.42;105339;1254;71517;-56
2024/02/01 00:21:01;;;;;;;20.80;12.00;;;;;;;1.31;100.00;101310.31;105127;1258;60595;-57
2024/02/01 00:23:28;;;;;;;20.20;12.70;;;;;;;1.33;100.00;101307.00;105374;1257;60572;-57
2024/02/01 00:25:55;;;;;;;21.00;12.80;;;;;;;1.37;100.00;101307.40;105172;1252;74143;-58
2024/02/01 00:28:23;;;;;;;20.20;13.20;;;;;;;1.41;100.00;101300.56;105261;1253;67048;-57
2024/02/01 00:30:50;;;;;;;17.50;12.20;;;;;;;1.46;100.00;101295.13;104963;1253;73714;-56
2024/02/01 00:33:17;;;;;;;23.50;12.80;;;;;;;1.51;100.00;101297.52;104905;1257;60540;-57
2024/02/01 00:35:45;;;;;;;21.80;13.70;;;;;;;1.55;100.00;101295.42;104796;1259;59637;-56
2024/02/01 00:38:13;;;;;;;19.80;12.10;;;;;;;1.59;100.00;101299.38;105378;1254;73083;-57
2024/02/01 00:40:40;;;;;;;23.00;14.40;;;;;;;1.61;100.00;101297.30;105063;1257;66260;-55
2024/02/01 00:43:08;;;;;;;19.20;13.40;;;;;;;1.64;100.00;101299.59;104967;1260;72695;-58
2024/02/01 00:45:35;;;;;;;24.20;14.00;;;;;;;1.64;100.00;101295.70;105039;1254;60412;-58
2024/02/01 00:48:03;;;;;;;22.90;14.00;;;;;;;1.64;100.00;101293.22;105208;1253;60620;-58
2024/02/01 00:50:31;;;;;;;21.80;13.00;;;;;;;1.62;100.00;101293.92;105345;1258;72654;-56
2024/02/01 00:52:58;;;;;;;20.10;13.50;;;;;;;1.63;100.00;101291.09;104967;1254;65097;-58
2024/02/01 00:55:26;;;;;;;22.70;13.60;;;;;;;1.64;100.00;101291.11;105081;1254;73179;-57
2024/02/01 00:57:54;;;;;;;20.60;13.70;;;;;;;1.65;100.00;101290.25;104895;1254;60543;-55
2024/02/01 01:00:21;;;;;;;23.20;13.70;;;;;;;1.68;100.00;101283.56;104828;1260;60431;-57
2024/02/01 01:02:48;;;;;;;21.80;13.20;;;;;;;1.73;100.00;101277.59;105402;1256;72932;-58
2024/02/01 01:05:16;;;;;;;21.60;13.70;;;;;;;1.77;100.00;101272.35;105590;1254;66768;-57
2024/02/01 01:07:43;;;;;;;21.40;14.00;;;;;;;1.80;100.00;101268.64;104899;1256;71738;-57
2024/02/01 01:10:10;;;;;;;25.30;16.30;;;;;;;1.80;100.00;101265.11;104962;1254;60386;-57
2024/02/01 01:12:38;;;;;;;26.70;14.80;;;;;;;1.81;100.00;101260.86;104834;1258;60447;-56
2024/02/01 01:15:05;;;;;;;26.60;16.70;;;;;;;1.78;100.00;101254.13;105029;1254;74374;-57
2024/02/01 01:17:33;;;;;;;28.30;17.20;;;;;;;1.75;100.00;101256.03;105397;1254;65285;-58
2024/02/01 01:20:03;;;;;;;30.80;18.80;;;;;;;1.71;100.00;101249.79;104947;1254;71212;-57
2024/02/01 01:22:30;;;;;;;36.80;20.40;;;;;;;1.67;100.00;101245.49;104995;1254;62198;-56
2024/02/01 01:24:58;;;;;;;29.00;19.00;;;;;;;1.63;100.00;101244.73;104802;1259;61327;-57
2024/02/01 01:27:25;;;;;;;30.00;17.30;;;;;;;1.59;100.00;101236.91;104995;1254;72284;-56
2024/02/01 01:29:52;;;;;;;29.30;17.70;;;;;;;1.57;100.00;101225.55;105194;1254;67385;-57
2024/02/01 01:32:20;;;;;;;26.20;16.40;;;;;;;1.55;100.00;101218.10;105030;1254;75100;-57
2024/02/01 01:34:47;;;;;;;29.40;17.30;;;;;;;1.56;100.00;101217.05;104873;1254;61119;-57
2024/02/01 01:37:14;;;;;;;24.90;17.30;;;;;;;1.56;100.00;101208.73;109200;1253;59197;-58
2024/02/01 01:39:42;;;;;;;27.20;17.50;;;;;;;1.58;100.00;101209.12;109044;1257;72595;-59
2024/02/01 01:42:09;;;;;;;25.10;16.00;;;;;;;1.61;100.00;101206.33;109159;1254;67908;-58
2024/02/01 01:44:36;;;;;;;24.60;15.70;;;;;;;1.63;100.00;101203.14;109202;1254;71713;-59
2024/02/01 01:47:04;;;;;;;25.60;16.00;;;;;;;1.64;100.00;101202.98;109081;1253;59326;-58
2024/02/01 01:49:31;;;;;;;26.20;15.90;;;;;;;1.68;100.00;101201.63;106335;1256;60407;-57
2024/02/01 01:51:59;;;;;;;27.90;15.80;;;;;;;1.69;100.00;101203.77;109073;1252;73776;-58
2024/02/01 01:54:27;;;;;;;23.90;15.60;;;;;;;1.70;100.00;101200.95;109134;1253;66216;-58
2024/02/01 01:56:54;;;;;;;21.90;15.70;;;;;;;1.71;100.00;101198.47;108729;1255;71506;-57
2024/02/01 01:59:22;;;;;;;30.40;17.00;;;;;;;1.69;100.00;101192.44;109041;1254;58816;-58
2024/02/01 02:01:50;;;;;;;34.70;17.70;;;;;;;1.65;100.00;101183.02;108933;1254;61447;-58
2024/02/01 02:04:17;;;;;;;25.10;15.50;;;;;;;1.63;100.00;101177.84;109069;1254;74307;-56
2024/02/01 02:06:45;;;;;;;22.70;13.70;;;;;;;1.61;100.00;101175.19;109204;1254;65950;-56
2024/02/01 02:09:12;;;;;;;26.90;15.10;;;;;;;1.59;100.00;101180.13;109298;1253;72680;-56
2024/02/01 02:11:43;;;;;;;22.40;14.30;;;;;;;1.59;100.00;101174.98;109065;1254;59204;-57
2024/02/01 02:14:14;;;;;;;20.50;12.60;;;;;;;1.60;100.00;101174.66;109064;1253;60859;-56
2024/02/01 02:16:41;;;;;;;21.30;14.00;;;;;;;1.61;100.00;101178.90;105972;1253;73989;-57
2024/02/01 02:19:09;;;;;;;23.30;13.80;;;;;;;1.62;100.00;101179.42;105565;1254;65468;-55
2024/02/01 02:21:47;;;;;;;22.40;15.30;;;;;;;1.63;100.00;101175.73;105205;1254;72646;-56
2024/02/01 02:24:15;;;;;;;21.60;14.60;;;;;;;1.64;100.00;101169.18;104887;1252;60481;-56
2024/02/01 02:26:43;;;;;;;23.00;16.10;;;;;;;1.63;100.00;101168.83;105465;1259;60447;-57
2024/02/01 02:29:14;;;;;;;18.70;14.50;;;;;;;1.61;100.00;101163.70;104987;1254;73963;-58
2024/02/01 02:31:49;;;;;;;27.40;17.10;;;;;;;1.58;100.00;101159.41;105381;1254;67256;-57
2024/02/01 02:34:16;;;;;;;25.90;17.90;;;;;;;1.55;100.00;101155.66;105237;1258;75843;-58
2024/02/01 02:36:44;;;;;;;25.10;16.50;;;;;;;1.51;100.00;101154.73;105084;1254;60577;-54
2024/02/01 02:39:14;;;;;;;26.40;16.90;;;;;;;1.47;100.00;101149.03;105044;1259;60383;-57
2024/02/01 02:41:42;;;;;;;23.60;15.70;;;;;;;1.44;100.00;101145.64;105080;1255;71881;-57
2024/02/01 02:44:11;;;;;;;26.20;15.00;;;;;;;1.41;100.00;101138.89;105229;1254;67597;-57
2024/02/01 02:46:39;;;;;;;27.10;16.30;;;;;;;1.39;100.00;101138.86;105330;1259;71196;-57
2024/02/01 02:49:08;;;;;;;30.00;16.80;;;;;;;1.38;100.00;101133.36;104956;1254;60917;-57
2024/02/01 02:51:39;;;;;;;26.10;15.40;;;;;;;1.37;100.00;101130.52;108005;1257;59819;-57
2024/02/01 02:54:10;;;;;;;30.00;16.20;;;;;;;1.37;100.00;101134.39;105230;1259;73850;-57
2024/02/01 02:56:39;;;;;;;25.20;16.00;;;;;;;1.36;100.00;101135.47;104986;1260;67235;-58
2024/02/01 02:59:06;;;;;;;24.10;14.90;;;;;;;1.35;100.00;101134.94;105303;1254;70290;-56
2024/02/01 03:01:33;;;;;;;22.50;14.90;;;;;;;1.35;100.00;101135.29;105048;1254;60508;-57
2024/02/01 03:04:01;;;;;;;27.20;17.70;;;;;;;1.34;100.00;101132.45;105051;1254;60303;-56
2024/02/01 03:06:28;;;;;;;24.40;16.40;;;;;;;1.33;100.00;101125.18;104795;1259;73911;-56
2024/02/01 03:08:56;;;;;;;30.30;16.70;;;;;;;1.31;100.00;101124.61;105187;1254;66706;-56
2024/02/01 03:11:23;;;;;;;27.40;16.80;;;;;;;1.28;100.00;101118.73;105061;1259;72895;-57
2024/02/01 03:13:50;;;;;;;26.50;15.70;;;;;;;1.24;100.00;101113.23;105125;1254;60749;-54
2024/02/01 03:16:20;;;;;;;24.90;16.80;;;;;;;1.21;100.00;101110.00;104876;1257;60882;-57
2024/02/01 03:18:49;;;;;;;28.70;15.80;;;;;;;1.18;100.00;101105.73;105171;1254;73847;-57
2024/02/01 03:21:17;;;;;;;25.00;14.90;;;;;;;1.17;100.00;101100.24;105275;1257;67573;-57
2024/02/01 03:23:46;;;;;;;28.90;15.50;;;;;;;1.15;100.00;101097.39;105262;1254;72636;-56
2024/02/01 03:26:13;;;;;;;23.80;14.90;;;;;;;1.14;100.00;101091.72;105496;1259;59897;-56
2024/02/01 03:28:43;;;;;;;25.70;15.10;;;;;;;1.13;100.00;101089.58;105041;1255;61440;-56
2024/02/01 03:31:11;;;;;;;26.50;14.70;;;;;;;1.14;100.00;101093.48;105134;1254;73930;-57
2024/02/01 03:33:40;;;;;;;23.40;14.70;;;;;;;1.17;100.00;101091.40;105200;1257;65958;-57
2024/02/01 03:36:08;;;;;;;23.00;15.00;;;;;;;1.19;100.00;101090.89;105139;1254;72908;-56
2024/02/01 03:38:40;;;;;;;24.10;14.60;;;;;;;1.21;100.00;101090.73;104940;1254;60534;-55
2024/02/01 03:41:08;;;;;;;25.20;15.80;;;;;;;1.24;100.00;101085.11;105879;1256;60377;-56
2024/02/01 03:43:35;;;;;;;22.30;13.40;;;;;;;1.24;100.00;101082.46;104944;1254;73012;-56
2024/02/01 03:46:03;;;;;;;25.30;15.90;;;;;;;1.25;100.00;101077.00;104768;1260;67478;-57
2024/02/01 03:48:32;;;;;;;25.80;16.50;;;;;;;1.26;100.00;101068.86;104815;1259;75222;-55
2024/02/01 03:51:02;;;;;;;28.20;17.40;;;;;;;1.26;100.00;101063.03;104897;1254;60516;-56
2024/02/01 03:53:29;;;;;;;23.60;15.60;;;;;;;1.26;100.00;101061.80;105018;1257;60556;-56
2024/02/01 03:55:56;;;;;;;26.10;15.20;;;;;;;1.27;100.00;101055.27;105013;1256;73992;-56
2024/02/01 03:58:26;;;;;;;27.90;17.30;;;;;;;1.28;100.00;101059.50;104996;1259;65507;-56
2024/02/01 04:00:56;;;;;;;39.60;20.80;;;;;;;1.30;100.00;101056.16;105112;1254;72790;-56
2024/02/01 04:03:24;;;;;;;54.10;24.00;;;;;;;1.31;100.00;101047.86;104890;1257;61463;-56
2024/02/01 04:05:53;;;;;;;62.00;27.60;;;;;;;1.33;100.00;101046.84;105751;1259;60470;-56
2024/02/01 04:08:21;;;;;;;65.50;30.00;;;;;;;1.35;100.00;101047.39;105167;1259;72657;-55
2024/02/01 04:10:49;;;;;;;79.30;33.20;;;;;;;1.36;100.00;101048.63;105210;1254;65777;-55
2024/02/01 04:13:16;;;;;;;74.40;31.80;;;;;;;1.37;100.00;101047.38;104994;1254;71083;-55
2024/02/01 04:15:44;;;;;;;63.00;28.50;;;;;;;1.38;100.00;101045.98;105428;1255;61958;-56
2024/02/01 04:18:11;;;;;;;54.50;26.60;;;;;;;1.38;100.00;101036.96;105006;1254;60546;-56
2024/02/01 04:20:41;;;;;;;49.20;24.90;;;;;;;1.39;100.00;101031.31;105023;1257;73947;-56
2024/02/01 04:23:09;;;;;;;36.80;20.10;;;;;;;1.40;100.00;101025.31;109181;1253;65689;-56
2024/02/01 04:25:36;;;;;;;32.90;17.50;;;;;;;1.40;100.00;101027.98;107024;1258;71446;-55
2024/02/01 04:28:08;;;;;;;40.40;20.20;;;;;;;1.41;100.00;101026.03;104899;1264;60549;-56
2024/02/01 04:30:37;;;;;;;50.60;22.00;;;;;;;1.42;100.00;101025.34;105110;1254;60407;-56
2024/02/01 04:33:04;;;;;;;53.80;24.20;;;;;;;1.43;100.00;101024.46;104945;1255;73993;-56
2024/02/01 04:35:33;;;;;;;41.60;19.40;;;;;;;1.43;100.00;101021.65;108563;1259;65811;-56
2024/02/01 04:38:01;;;;;;;41.00;20.20;;;;;;;1.46;100.00;101020.77;105068;1257;70474;-56
2024/02/01 04:40:29;;;;;;;37.00;17.80;;;;;;;1.49;100.00;101019.56;104984;1258;60661;-57
2024/02/01 04:42:57;;;;;;;28.80;15.30;;;;;;;1.52;100.00;101018.34;104951;1259;60473;-56
2024/02/01 04:45:25;;;;;;;26.20;15.10;;;;;;;1.56;100.00;101019.07;109237;1254;72875;-57
2024/02/01 04:47:52;;;;;;;25.00;13.80;;;;;;;1.58;100.00;101015.21;106320;1259;68771;-56
2024/02/01 04:50:20;;;;;;;23.10;14.30;;;;;;;1.59;100.00;101011.50;109107;1253;72710;-56
2024/02/01 04:52:47;;;;;;;22.90;14.70;;;;;;;1.60;100.00;101013.81;109061;1258;59843;-56
2024/02/01 04:55:15;;;;;;;21.80;14.40;;;;;;;1.59;100.00;101006.73;109065;1254;60010;-56
2024/02/01 04:57:42;;;;;;;21.10;14.10;;;;;;;1.58;100.00;101004.77;109044;1254;74309;-56
2024/02/01 05:00:17;;;;;;;30.10;16.10;;;;;;;1.56;100.00;101005.27;109190;1254;67362;-56
2024/02/01 05:02:48;;;;;;;27.30;15.20;;;;;;;1.54;100.00;100998.17;109142;1254;72605;-55
2024/02/01 05:05:17;;;;;;;36.20;17.60;;;;;;;1.53;100.00;100995.36;105269;1254;60546;-55
2024/02/01 05:07:44;;;;;;;38.00;16.30;;;;;;;1.51;100.00;100990.58;109216;1254;59123;-56
2024/02/01 05:10:12;;;;;;;36.70;17.60;;;;;;;1.51;100.00;100989.52;109018;1254;72577;-56
2024/02/01 05:12:40;;;;;;;35.30;18.00;;;;;;;1.50;100.00;100985.79;109132;1258;66029;-56
2024/02/01 05:15:09;;;;;;;24.90;14.60;;;;;;;1.51;100.00;100988.11;108994;1254;72664;-56
2024/02/01 05:17:36;;;;;;;22.70;13.60;;;;;;;1.53;100.00;100990.40;109119;1256;59268;-56
2024/02/01 05:20:13;;;;;;;26.80;15.00;;;;;;;1.53;100.00;100988.98;108818;1254;58755;-56
2024/02/01 05:22:41;;;;;;;23.30;13.70;;;;;;;1.54;100.00;100996.95;106269;1257;75997;-55
2024/02/01 05:25:14;;;;;;;20.70;13.90;;;;;;;1.55;100.00;100992.52;106888;1258;66899;-56
2024/02/01 05:27:50;;;;;;;19.30;12.80;;;;;;;1.54;100.00;100988.10;104969;1257;72233;-54
2024/02/01 05:30:20;;;;;;;30.10;15.10;;;;;;;1.52;100.00;100981.38;105478;1254;61477;-55
2024/02/01 05:32:52;;;;;;;27.80;15.10;;;;;;;1.50;100.00;100979.60;104994;1260;60456;-54
2024/02/01 05:35:28;;;;;;;36.50;17.40;;;;;;;1.48;100.00;100979.21;105056;1257;72550;-54
2024/02/01 05:37:57;;;;;;;35.80;19.90;;;;;;;1.46;100.00;100980.43;105502;1259;65679;-55
2024/02/01 05:40:24;;;;;;;30.20;17.00;;;;;;;1.45;100.00;100979.36;105181;1257;72773;-55
2024/02/01 05:42:51;;;;;;;23.50;13.60;;;;;;;1.45;100.00;100976.00;104860;1254;61873;-54
2024/02/01 05:45:19;;;;;;;21.00;12.50;;;;;;;1.45;100.00;100975.99;104693;1254;60933;-55
2024/02/01 05:47:47;;;;;;;21.50;12.70;;;;;;;1.46;100.00;100974.41;105146;1260;73853;-54
2024/02/01 05:50:14;;;;;;;20.80;13.40;;;;;;;1.47;100.00;100971.95;105585;1254;66796;-55
2024/02/01 05:52:42;;;;;;;19.00;14.10;;;;;;;1.49;100.00;100967.91;105084;1254;74276;-54
2024/02/01 05:55:10;;;;;;;19.40;13.80;;;;;;;1.50;100.00;100966.68;105185;1259;60489;-54
2024/02/01 05:57:38;;;;;;;24.60;14.70;;;;;;;1.51;100.00;100963.51;104885;1259;60532;-54
2024/02/01 06:00:06;;;;;;;23.60;14.40;;;;;;;1.51;100.00;100957.50;104808;1254;73072;-54
2024/02/01 06:02:34;;;;;;;18.40;12.50;;;;;;;1.53;100.00;100957.31;105221;1257;67703;-54
2024/02/01 06:05:01;;;;;;;22.30;14.00;;;;;;;1.56;100.00;100953.79;104927;1257;71349;-55
2024/02/01 06:07:29;;;;;;;21.00;11.00;;;;;;;1.59;100.00;100952.95;105020;1266;60546;-54
2024/02/01 06:09:56;;;;;;;23.60;14.50;;;;;;;1.63;100.00;100952.61;104930;1252;60430;-56
2024/02/01 06:12:24;;;;;;;22.80;13.80;;;;;;;1.66;100.00;100947.33;104951;1260;73951;-56
2024/02/01 06:14:51;;;;;;;23.10;14.40;;;;;;;1.70;100.00;100947.53;105287;1257;66773;-54
2024/02/01 06:17:19;;;;;;;20.10;13.10;;;;;;;1.76;100.00;100944.03;105099;1258;70881;-55
2024/02/01 06:19:46;;;;;;;18.00;12.20;;;;;;;1.81;100.00;100935.20;104836;1260;60542;-55
2024/02/01 06:22:13;;;;;;;21.20;13.60;;;;;;;1.86;100.00;100936.48;105081;1258;60574;-56
2024/02/01 06:24:41;;;;;;;25.10;14.80;;;;;;;1.91;100.00;100936.85;104946;1260;73353;-55
2024/02/01 06:27:08;;;;;;;21.10;12.80;;;;;;;1.95;100.00;100935.65;105019;1254;66054;-55
2024/02/01 06:29:37;;;;;;;21.60;15.20;;;;;;;1.98;100.00;100942.73;105429;1258;72145;-55
2024/02/01 06:32:12;;;;;;;23.50;15.90;;;;;;;1.99;100.00;100942.23;105174;1259;60862;-58
2024/02/01 06:34:40;;;;;;;26.00;14.80;;;;;;;2.00;100.00;100936.73;105138;1252;60484;-54
2024/02/01 06:37:08;;;;;;;21.60;13.50;;;;;;;2.02;100.00;100936.39;104964;1253;76033;-56
2024/02/01 06:39:58;;;;;;;22.80;13.30;;;;;;;2.04;100.00;100913.20;104875;1259;65640;-54
2024/02/01 06:42:32;;;;;;;26.00;13.70;;;;;;;2.08;100.00;100904.90;106441;1257;73431;-55
2024/02/01 06:45:19;;;;;;;23.80;13.90;;;;;;;2.11;100.00;100904.58;105357;1254;60364;-56
2024/02/01 06:47:49;;;;;;;22.70;12.50;;;;;;;2.15;100.00;100908.30;107487;1254;60437;-54
2024/02/01 06:50:34;;;;;;;19.90;13.70;;;;;;;2.20;100.00;100908.15;105507;1257;73215;-56
2024/02/01 06:53:08;;;;;;;20.80;14.00;;;;;;;2.25;100.00;100907.98;104880;1254;65659;-54
2024/02/01 06:55:43;;;;;;;22.10;14.40;;;;;;;2.31;100.00;100911.36;105316;1254;74062;-55
2024/02/01 06:58:16;;;;;;;22.40;14.70;;;;;;;2.35;100.00;100910.67;108222;1257;60406;-57
2024/02/01 07:03:32;;;;;;;29.00;18.30;;;;;;;2.41;100.00;100913.34;105139;1254;72233;-55
2024/02/01 07:06:06;;;;;;;32.60;19.20;;;;;;;2.42;100.00;100910.52;105591;1259;66073;-55
2024/02/01 07:16:35;;;;;;;21.10;13.80;;;;;;;2.49;100.00;100915.67;104727;1255;72478;-56
2024/02/01 07:19:16;;;;;;;19.60;13.40;;;;;;;2.51;100.00;100906.30;105566;1258;66170;-55
2024/02/01 07:24:45;;;;;;;23.10;14.30;;;;;;;2.56;100.00;100900.63;105092;1260;61268;-57
2024/02/01 07:57:52;;;;;;;31.70;20.70;;;;;;;2.98;100.00;100885.63;109216;1252;74620;-57
2024/02/01 08:00:33;;;;;;;32.90;21.40;;;;;;;3.02;100.00;100876.77;109182;1254;65622;-57
2024/02/01 08:03:11;;;;;;;32.20;21.90;;;;;;;3.06;100.00;100871.09;109191;1254;71990;-57
2024/02/01 08:08:26;;;;;;;30.90;19.00;;;;;;;3.15;100.00;100869.85;109185;1253;58835;-57
2024/02/01 08:10:56;;;;;;;30.70;19.70;;;;;;;3.20;100.00;100860.44;105707;1255;74375;-59
2024/02/01 08:13:24;;;;;;;27.50;17.10;;;;;;;3.27;100.00;100855.65;109204;1254;67316;-57
2024/02/01 08:15:52;;;;;;;28.20;17.60;;;;;;;3.33;100.00;100863.61;107145;1254;72790;-58
2024/02/01 08:18:20;;;;;;;21.50;16.40;;;;;;;3.40;100.00;100857.94;105018;1256;60557;-59
2024/02/01 08:20:47;;;;;;;25.00;17.00;;;;;;;3.47;100.00;100863.08;107676;1257;60890;-55
2024/02/01 08:23:23;;;;;;;29.40;20.60;;;;;;;3.51;100.00;100861.81;105113;1255;72648;-56
2024/02/01 08:25:51;;;;;;;31.60;20.60;;;;;;;3.58;100.00;100865.36;106935;1254;561420;-58
2024/02/01 08:29:35;;;;;;;34.50;23.40;;;;;;;3.72;100.00;100964.37;102037;1291;600837;-57
2024/02/01 08:32:04;;;;;;;30.40;19.70;;;;;;;3.83;100.00;100968.98;104179;1266;62739;-55
2024/02/01 08:34:32;;;;;;;25.90;19.30;;;;;;;3.93;100.00;100950.84;104563;1267;59261;-57
2024/02/01 08:37:09;;;;;;;26.10;16.20;;;;;;;4.03;100.00;100943.70;104111;1268;71067;-58
2024/02/01 08:39:44;;;;;;;20.50;15.60;;;;;;;4.14;100.00;100940.30;104093;1266;67290;-58
2024/02/01 08:42:12;;;;;;;24.10;14.50;;;;;;;4.21;100.00;100933.17;104235;1264;185995;-59
2024/02/01 08:44:39;;;;;;;24.10;15.30;;;;;;;4.28;100.00;100930.30;104725;1263;61224;-57
2024/02/01 08:47:07;;;;;;;23.60;15.70;;;;;;;4.35;100.00;100928.32;104310;1263;60566;-58
2024/02/01 08:49:39;;;;;;;22.50;15.90;;;;;;;4.41;100.00;100927.58;104302;1267;72372;-57
2024/02/01 08:52:06;;;;;;;22.60;16.90;;;;;;;4.48;100.00;100919.55;103896;1263;65289;-55
2024/02/01 08:54:36;;;;;;;22.50;15.00;;;;;;;4.57;100.00;100915.77;104209;1263;71809;-57
2024/02/01 08:57:13;;;;;;;22.00;13.40;;;;;;;4.66;100.00;100907.36;104604;1265;59698;-57
2024/02/01 08:59:41;;;;;;;15.80;12.40;;;;;;;4.73;100.00;100903.76;106155;1263;62484;-58
2024/02/01 09:02:15;;;;;;;16.80;12.00;;;;;;;4.80;100.00;100898.91;104387;1263;71884;-57
2024/02/01 09:04:43;;;;;;;;;;;;;;;4.85;100.00;100897.45;104693;1265;65781;-57
2024/02/01 09:07:10;;;;;;;15.40;11.80;;;;;;;4.89;100.00;100891.02;104171;1266;71443;-57
2024/02/01 09:09:39;;;;;;;17.50;12.70;;;;;;;4.92;100.00;100886.20;104456;1268;60133;-57
2024/02/01 09:12:07;;;;;;;15.90;13.00;;;;;;;4.96;100.00;100884.91;104438;1268;59752;-58
2024/02/01 09:14:34;;;;;;;19.00;14.40;;;;;;;4.98;100.00;100878.16;104434;1263;71815;-58
2024/02/01 09:17:03;;;;;;;22.30;14.10;;;;;;;4.97;100.00;100865.17;104340;1264;69058;-58
2024/02/01 09:19:30;;;;;;;17.60;12.20;;;;;;;4.97;100.00;100865.89;104296;1269;72748;-58
2024/02/01 09:22:00;;;;;;;18.90;13.00;;;;;;;4.95;100.00;100856.64;104245;1268;60977;-56
2024/02/01 09:24:27;;;;;;;16.70;11.50;;;;;;;4.92;100.00;100857.93;105251;1268;60235;-56
2024/02/01 09:26:55;;;;;;;17.60;10.80;;;;;;;4.90;100.00;100850.64;104357;1268;71904;-57
2024/02/01 09:29:26;;;;;;;18.50;11.80;;;;;;;4.90;100.00;100845.48;104344;1267;66105;-59
2024/02/01 09:31:56;;;;;;;15.30;11.70;;;;;;;4.90;100.00;100847.45;104176;1265;71484;-57
2024/02/01 09:34:23;;;;;;;17.30;12.00;;;;;;;4.90;100.00;100839.98;104344;1266;60230;-58
2024/02/01 09:36:51;;;;;;;14.40;11.80;;;;;;;4.88;100.00;100833.40;104919;1263;60008;-57
2024/02/01 09:39:18;;;;;;;17.80;12.70;;;;;;;4.85;100.00;100824.34;104235;1268;73212;-58
2024/02/01 09:41:46;;;;;;;21.70;14.40;;;;;;;4.83;100.00;100821.18;104207;1266;66235;-56
2024/02/01 09:44:14;;;;;;;22.60;15.80;;;;;;;4.82;100.00;100814.43;104982;1259;71444;-58
2024/02/01 09:46:44;;;;;;;20.30;14.50;;;;;;;4.80;100.00;100815.33;104960;1259;59644;-57
2024/02/01 09:49:11;;;;;;;15.50;11.80;;;;;;;4.79;100.00;100813.91;104307;1259;60116;-56
2024/02/01 09:51:51;;;;;;;13.00;10.60;;;;;;;4.78;100.00;100816.77;104513;1259;73675;-55
2024/02/01 09:54:18;;;;;;;13.60;10.20;;;;;;;4.78;100.00;100812.30;104835;1264;65310;-57
2024/02/01 09:56:46;;;;;;;15.00;11.10;;;;;;;4.78;100.00;100808.58;104500;1259;72462;-58
2024/02/01 09:59:14;;;;;;;15.40;10.40;;;;;;;4.79;100.00;100803.41;104535;1260;59582;-56
2024/02/01 10:01:42;;;;;;;13.80;10.10;;;;;;;4.80;100.00;100783.85;105014;1261;59741;-56
2024/02/01 10:04:13;;;;;;;14.20;10.80;;;;;;;4.81;100.00;100777.27;105759;1257;71867;-58
2024/02/01 10:06:40;;;;;;;16.50;11.60;;;;;;;4.82;100.00;100773.71;104692;1261;67018;-57
2024/02/01 10:09:25;;;;;;;18.60;12.90;;;;;;;4.81;100.00;100770.69;104920;1262;71911;-56
2024/02/01 10:11:56;;;;;;;17.70;12.20;;;;;;;4.80;100.00;100762.88;105211;1256;59624;-55
2024/02/01 10:14:34;;;;;;;16.40;10.90;;;;;;;4.78;100.00;100757.54;104579;1257;62802;-55
2024/02/01 10:17:05;;;;;;;17.60;12.00;;;;;;;4.77;100.00;100760.95;104523;1256;72756;-57
2024/02/01 10:19:34;;;;;;;14.00;10.30;;;;;;;4.75;100.00;100763.28;105192;1256;65802;-57
2024/02/01 10:22:08;;;;;;;14.30;9.70;;;;;;;4.74;100.00;100756.17;108825;1256;73089;-58
2024/02/01 10:24:45;;;;;;;15.00;10.70;;;;;;;4.75;100.00;100750.66;104963;1262;60936;-56
2024/02/01 10:27:13;;;;;;;16.50;10.50;;;;;;;4.76;100.00;100745.67;104910;1261;60104;-56
2024/02/01 10:29:44;;;;;;;13.20;9.30;;;;;;;4.77;100.00;100736.59;108720;1256;71189;-58
2024/02/01 10:32:15;;;;;;;16.50;10.70;;;;;;;4.79;100.00;100728.38;106362;1256;65808;-57
2024/02/01 10:34:50;;;;;;;15.80;9.10;;;;;;;4.83;100.00;100734.76;105716;1258;71346;-57
2024/02/01 10:37:18;;;;;;;14.00;10.30;;;;;;;4.85;100.00;100728.13;108745;1256;60291;-58
2024/02/01 10:40:00;;;;;;;13.90;10.50;;;;;;;4.86;100.00;100724.75;106667;1258;60126;-58
2024/02/01 10:42:29;;;;;;;13.70;10.50;;;;;;;4.87;100.00;100721.90;108918;1252;70993;-57
2024/02/01 10:44:57;;;;;;;16.80;12.20;;;;;;;4.86;100.00;100715.48;109093;1256;67072;-57
2024/02/01 10:47:25;;;;;;;19.20;12.00;;;;;;;4.86;100.00;100714.08;109061;1252;72738;-57
2024/02/01 10:49:53;;;;;;;16.80;11.50;;;;;;;4.84;100.00;100708.06;109172;1256;59337;-57
2024/02/01 10:52:21;;;;;;;17.70;11.30;;;;;;;4.82;100.00;100711.10;108976;1253;58788;-58
2024/02/01 10:54:51;;;;;;;15.30;10.60;;;;;;;4.82;100.00;100707.91;109121;1253;73272;-57
2024/02/01 10:57:19;;;;;;;13.90;10.50;;;;;;;4.80;100.00;100700.10;109200;1257;65851;-58
2024/02/01 10:59:47;;;;;;;18.10;11.20;;;;;;;4.80;100.00;100696.54;107658;1253;72764;-55
2024/02/01 11:02:15;;;;;;;16.30;11.00;;;;;;;4.80;100.00;100693.69;104897;1252;61632;-56
2024/02/01 11:04:46;;;;;;;16.30;12.10;;;;;;;4.80;100.00;100683.55;104950;1260;59943;-58
2024/02/01 11:07:40;;;;;;;12.70;10.70;;;;;;;4.81;100.00;100682.84;109110;1253;75378;-58
2024/02/01 11:10:13;;;;;;;19.80;12.60;;;;;;;4.83;100.00;100682.11;109135;1253;65827;-58
2024/02/01 11:12:40;;;;;;;18.80;11.70;;;;;;;4.84;100.00;100672.67;109167;1253;71445;-59
2024/02/01 11:15:16;;;;;;;15.90;10.40;;;;;;;4.87;100.00;100667.48;109054;1253;58069;-58
2024/02/01 11:17:44;;;;;;;13.40;10.10;;;;;;;4.88;100.00;100663.37;108244;1258;59744;-56
2024/02/01 11:20:12;;;;;;;11.60;8.90;;;;;;;4.89;100.00;100653.41;104886;1260;73188;-56
2024/02/01 11:22:40;;;;;;;13.30;9.60;;;;;;;4.90;100.00;100649.14;104944;1257;67363;-57
2024/02/01 11:25:08;;;;;;;11.90;8.70;;;;;;;4.89;100.00;100645.40;105033;1256;71929;-55
2024/02/01 11:27:42;;;;;;;10.70;8.30;;;;;;;4.91;100.00;100641.66;105058;1253;60429;-58
2024/02/01 11:30:24;;;;;;;13.00;10.00;;;;;;;4.91;100.00;100639.88;105063;1253;60069;-58
2024/02/01 11:32:52;;;;;;;14.00;9.50;;;;;;;4.91;100.00;100633.11;105072;1258;70872;-57
2024/02/01 11:35:22;;;;;;;13.90;10.00;;;;;;;4.92;100.00;100624.04;105220;1254;66271;-57
2024/02/01 11:38:06;;;;;;;11.00;9.30;;;;;;;4.94;100.00;100617.23;105066;1257;74001;-58
2024/02/01 11:40:34;;;;;;;13.60;9.30;;;;;;;4.98;100.00;100613.11;105103;1256;59634;-60
2024/02/01 11:43:01;;;;;;;10.60;8.90;;;;;;;5.00;100.00;100607.58;104828;1258;59863;-56
2024/02/01 11:45:30;;;;;;;12.20;8.90;;;;;;;5.01;100.00;100602.95;104724;1253;73523;-57
2024/02/01 11:47:57;;;;;;;8.60;7.00;;;;;;;5.03;100.00;100597.38;105183;1253;66124;-58
2024/02/01 11:50:26;;;;;;;10.70;8.00;;;;;;;5.04;100.00;100589.73;105018;1259;73626;-57
2024/02/01 11:53:00;;;;;;;10.30;8.50;;;;;;;5.05;100.00;100586.34;107087;1258;59750;-56
2024/02/01 11:55:29;;;;;;;10.90;7.20;;;;;;;5.04;100.00;100580.65;105123;1259;59690;-53
2024/02/01 11:57:59;;;;;;;12.90;8.20;;;;;;;5.04;100.00;100580.11;104961;1253;73194;-57
2024/02/01 12:00:27;;;;;;;14.10;8.90;;;;;;;5.03;100.00;100570.88;105340;1257;67103;-56